createdAt,value
2019-03-06T00:03:58.794Z,8.10
2019-03-06T00:08:55.326Z,8.23
2019-03-06T00:13:51.241Z,22.27
2019-03-06T00:18:47.241Z,9.37
2019-03-06T00:23:42.911Z,16.60
2019-03-06T00:28:38.777Z,9.60
2019-03-06T00:33:34.575Z,8.60
2019-03-06T00:38:31.417Z,8.10
2019-03-06T00:43:27.099Z,7.03
2019-03-06T00:48:23.219Z,7.00
2019-03-06T00:53:18.897Z,7.17
2019-03-06T00:58:14.781Z,6.93
2019-03-06T01:03:10.469Z,7.50
2019-03-06T01:08:06.385Z,8.17
2019-03-06T01:13:02.181Z,7.67
2019-03-06T01:17:58.370Z,9.07
2019-03-06T01:22:54.081Z,9.03
2019-03-06T01:27:50.202Z,8.47
2019-03-06T01:32:49.155Z,7.37
2019-03-06T01:37:53.011Z,6.73
2019-03-06T01:42:50.899Z,7.13
2019-03-06T01:47:46.997Z,6.93
2019-03-06T01:52:42.669Z,7.03
2019-03-06T01:57:39.162Z,7.50
2019-03-06T02:02:34.841Z,7.83
2019-03-06T02:07:31.068Z,7.23
2019-03-06T02:12:26.857Z,7.40
2019-03-06T02:17:22.733Z,7.73
2019-03-06T02:22:18.742Z,7.63
2019-03-06T02:27:14.876Z,8.70
2019-03-06T02:32:10.666Z,8.00
2019-03-06T02:37:08.483Z,8.53
2019-03-06T02:42:04.350Z,8.70
2019-03-06T02:47:00.468Z,8.80
2019-03-06T02:51:56.170Z,9.17
2019-03-06T02:56:52.033Z,9.57
2019-03-06T03:01:55.426Z,10.17
2019-03-06T03:06:55.688Z,10.23
2019-03-06T03:11:51.821Z,10.10
2019-03-06T03:16:47.595Z,10.63
2019-03-06T03:21:43.726Z,10.73
2019-03-06T03:26:39.692Z,10.77
2019-03-06T03:31:35.926Z,10.50
2019-03-06T03:36:31.747Z,10.83
2019-03-06T03:41:28.630Z,10.70
2019-03-06T03:46:24.420Z,10.17
2019-03-06T03:51:20.388Z,10.53
2019-03-06T03:56:16.618Z,11.33
2019-03-06T04:01:12.767Z,10.57
2019-03-06T04:06:08.741Z,10.87
2019-03-06T04:11:04.632Z,10.70
2019-03-06T04:16:00.503Z,10.37
2019-03-06T04:20:56.328Z,11.83
2019-03-06T04:25:52.098Z,11.90
2019-03-06T04:30:49.881Z,11.93
2019-03-06T04:35:45.827Z,12.43
2019-03-06T04:40:41.669Z,13.00
2019-03-06T04:45:37.757Z,13.47
2019-03-06T04:50:33.905Z,14.67
2019-03-06T04:55:29.680Z,14.73
2019-03-06T05:00:26.440Z,14.63
2019-03-06T05:05:22.227Z,14.50
2019-03-06T05:10:18.220Z,15.00
2019-03-06T05:15:14.488Z,16.77
2019-03-06T05:20:11.435Z,15.67
2019-03-06T05:25:07.121Z,17.60
2019-03-06T05:30:04.789Z,18.87
2019-03-06T05:35:14.411Z,21.43
2019-03-06T05:40:10.103Z,20.73
2019-03-06T05:45:06.193Z,22.43
2019-03-06T05:50:03.965Z,20.70
2019-03-06T05:55:00.354Z,20.67
2019-03-06T05:59:56.019Z,22.13
2019-03-06T06:04:51.967Z,22.23
2019-03-06T06:09:47.673Z,22.47
2019-03-06T06:14:43.531Z,22.97
2019-03-06T06:19:39.234Z,22.03
2019-03-06T06:24:35.232Z,22.87
2019-03-06T06:29:30.920Z,21.23
2019-03-06T06:34:27.095Z,21.10
2019-03-06T06:39:22.912Z,21.00
2019-03-06T06:44:18.642Z,20.73
2019-03-06T06:49:14.335Z,18.90
2019-03-06T06:54:12.765Z,17.03
2019-03-06T06:59:16.390Z,17.00
2019-03-06T07:04:34.198Z,14.07
2019-03-06T07:09:41.029Z,13.80
2019-03-06T07:14:50.532Z,13.67
2019-03-06T07:20:00.344Z,12.93
2019-03-06T07:24:57.945Z,13.43
2019-03-06T07:30:04.549Z,13.53
2019-03-06T07:35:23.841Z,14.57
2019-03-06T07:40:20.824Z,15.53
2019-03-06T07:45:38.650Z,16.40
2019-03-06T07:50:36.335Z,13.40
2019-03-06T07:55:34.901Z,12.37
2019-03-06T08:00:30.558Z,12.80
2019-03-06T08:05:26.439Z,11.03
2019-03-06T08:10:24.169Z,11.80
2019-03-06T08:15:38.439Z,10.57
2019-03-06T08:20:36.021Z,10.50
2019-03-06T08:25:42.818Z,11.07
2019-03-06T08:30:40.495Z,8.80
2019-03-06T08:35:36.365Z,7.37
2019-03-06T08:40:32.052Z,6.70
2019-03-06T08:45:48.079Z,5.57
2019-03-06T08:50:52.071Z,5.12
2019-03-06T08:55:59.179Z,4.20
2019-03-06T09:01:08.646Z,4.58
2019-03-06T09:06:15.569Z,4.33
2019-03-06T09:11:31.405Z,4.25
2019-03-06T09:16:29.191Z,4.08
2019-03-06T09:26:32.961Z,3.40
2019-03-06T09:31:36.736Z,4.08
2019-03-06T09:36:50.983Z,3.15
2019-03-06T09:41:54.553Z,2.92
2019-03-06T09:46:58.551Z,3.50
2019-03-06T09:51:59.039Z,3.95
2019-03-06T09:56:56.848Z,3.85
2019-03-06T10:02:10.339Z,3.87
2019-03-06T10:07:23.199Z,4.10
2019-03-06T10:12:26.647Z,4.20
2019-03-06T10:17:40.551Z,3.70
2019-03-06T10:22:36.354Z,3.58
2019-03-06T10:27:32.315Z,3.58
2019-03-06T10:32:28.185Z,4.10
2019-03-06T10:37:24.171Z,4.08
2019-03-06T10:42:20.062Z,3.98
2019-03-06T10:47:16.153Z,3.80
2019-03-06T10:52:11.951Z,3.80
2019-03-06T10:57:08.141Z,3.58
2019-03-06T11:02:04.219Z,3.58
2019-03-06T11:07:01.056Z,2.85
2019-03-06T11:11:57.137Z,3.08
2019-03-06T11:16:53.311Z,2.77
2019-03-06T11:21:49.285Z,2.40
2019-03-06T11:26:45.256Z,2.30
2019-03-06T11:31:41.045Z,2.42
2019-03-06T11:36:37.117Z,2.35
2019-03-06T11:41:32.988Z,2.10
2019-03-06T11:46:29.109Z,2.20
2019-03-06T11:51:24.999Z,2.12
2019-03-06T11:56:20.881Z,1.90
2019-03-06T12:01:18.855Z,1.90
2019-03-06T12:06:14.945Z,2.20
2019-03-06T12:11:11.531Z,2.05
2019-03-06T12:16:07.483Z,2.15
2019-03-06T12:21:03.390Z,2.12
2019-03-06T12:25:59.615Z,1.77
2019-03-06T12:30:55.394Z,2.27
2019-03-06T12:35:51.252Z,2.27
2019-03-06T12:40:47.392Z,2.00
2019-03-06T12:46:01.764Z,2.13
2019-03-06T12:50:57.683Z,1.80
2019-03-06T12:55:53.785Z,1.75
2019-03-06T13:00:49.764Z,2.07
2019-03-06T13:05:45.860Z,1.60
2019-03-06T13:10:42.734Z,2.30
2019-03-06T13:15:39.849Z,2.13
2019-03-06T13:20:35.634Z,1.70
2019-03-06T13:25:31.703Z,1.63
2019-03-06T13:30:27.903Z,1.70
2019-03-06T13:35:24.374Z,1.80
2019-03-06T13:40:20.165Z,1.87
2019-03-06T13:45:16.205Z,2.07
2019-03-06T13:50:12.288Z,1.53
2019-03-06T13:55:10.287Z,1.83
2019-03-06T14:00:17.089Z,2.00
2019-03-06T14:05:13.499Z,2.20
2019-03-06T14:10:10.480Z,1.87
2019-03-06T14:15:07.942Z,1.80
2019-03-06T14:20:05.409Z,1.90
2019-03-06T14:25:01.182Z,2.07
2019-03-06T14:29:57.177Z,2.13
2019-03-06T14:34:53.062Z,2.23
2019-03-06T14:39:49.311Z,2.20
2019-03-06T14:44:45.105Z,2.43
2019-03-06T14:49:41.296Z,1.93
2019-03-06T14:54:37.084Z,2.00
2019-03-06T14:59:33.404Z,2.00
2019-03-06T15:04:29.183Z,2.30
2019-03-06T15:09:25.131Z,2.00
2019-03-06T15:14:21.661Z,2.00
2019-03-06T15:19:18.093Z,1.57
2019-03-06T15:24:13.767Z,1.80
2019-03-06T15:29:10.055Z,2.00
2019-03-06T15:34:06.083Z,2.03
2019-03-06T15:39:04.808Z,2.00
2019-03-06T15:44:00.704Z,1.70
2019-03-06T15:48:56.679Z,1.60
2019-03-06T15:53:52.359Z,2.07
2019-03-06T15:58:48.216Z,1.90
2019-03-06T16:03:44.449Z,1.70
2019-03-06T16:08:40.778Z,1.87
2019-03-06T16:13:36.543Z,1.80
2019-03-06T16:18:33.879Z,2.07
2019-03-06T16:23:29.759Z,1.80
2019-03-06T16:28:26.653Z,2.10
2019-03-06T16:33:22.332Z,2.07
2019-03-06T16:38:18.317Z,1.97
2019-03-06T16:43:14.087Z,1.87
2019-03-06T16:48:10.186Z,2.20
2019-03-06T16:53:06.245Z,2.10
2019-03-06T16:58:02.415Z,2.17
2019-03-06T17:03:01.695Z,2.40
2019-03-06T17:07:57.854Z,3.20
2019-03-06T17:12:53.952Z,2.83
2019-03-06T17:17:50.504Z,2.70
2019-03-06T17:22:46.613Z,2.70
2019-03-06T17:27:43.201Z,2.60
2019-03-06T17:32:40.905Z,3.00
2019-03-06T17:37:37.161Z,2.43
2019-03-06T17:42:32.979Z,2.63
2019-03-06T17:47:29.627Z,2.50
2019-03-06T17:52:25.307Z,2.83
2019-03-06T17:57:21.239Z,3.20
2019-03-06T18:02:17.144Z,3.30
2019-03-06T18:07:13.218Z,3.10
2019-03-06T18:12:09.017Z,3.30
2019-03-06T18:17:04.875Z,3.20
2019-03-06T18:22:00.669Z,2.83
2019-03-06T18:26:57.534Z,3.07
2019-03-06T18:31:53.337Z,3.00
2019-03-06T18:36:49.449Z,3.67
2019-03-06T18:41:45.482Z,3.33
2019-03-06T18:46:41.555Z,4.30
2019-03-06T18:51:37.249Z,3.70
2019-03-06T18:56:33.475Z,2.73
2019-03-06T19:01:29.537Z,3.60
2019-03-06T19:06:25.524Z,3.43
2019-03-06T19:11:21.213Z,3.60
2019-03-06T19:16:17.299Z,3.30
2019-03-06T19:21:13.022Z,3.50
2019-03-06T19:26:09.016Z,4.07
2019-03-06T19:31:04.903Z,3.73
2019-03-06T19:36:01.194Z,3.10
2019-03-06T19:40:56.984Z,2.97
2019-03-06T19:45:53.083Z,3.40
2019-03-06T19:50:48.887Z,5.03
2019-03-06T19:55:44.826Z,4.03
2019-03-06T20:00:40.612Z,4.07
2019-03-06T20:05:38.521Z,4.23
2019-03-06T20:10:34.412Z,8.20
2019-03-06T20:15:30.742Z,5.93
2019-03-06T20:20:26.616Z,5.80
2019-03-06T20:25:22.818Z,4.30
2019-03-06T20:30:22.108Z,4.40
2019-03-06T20:35:18.813Z,3.20
2019-03-06T20:40:14.868Z,3.40
2019-03-06T20:45:11.349Z,4.23
2019-03-06T20:50:08.545Z,3.80
2019-03-06T20:55:05.566Z,3.60
2019-03-06T21:00:02.447Z,4.17
2019-03-06T21:04:58.660Z,3.90
2019-03-06T21:09:54.430Z,4.20
2019-03-06T21:14:50.452Z,4.30
2019-03-06T21:19:46.227Z,4.00
2019-03-06T21:24:42.320Z,3.80
2019-03-06T21:29:38.094Z,3.87
2019-03-06T21:34:34.348Z,3.60
2019-03-06T21:39:30.248Z,3.60
2019-03-06T21:44:26.246Z,3.63
2019-03-06T21:49:21.998Z,4.30
2019-03-06T21:54:17.977Z,4.07
2019-03-06T21:59:13.753Z,3.77
2019-03-06T22:04:09.884Z,4.27
2019-03-06T22:09:07.816Z,4.47
2019-03-06T22:14:03.931Z,3.80
2019-03-06T22:19:01.000Z,3.93
2019-03-06T22:23:56.989Z,4.00
2019-03-06T22:28:54.548Z,4.37
2019-03-06T22:33:50.970Z,4.10
2019-03-06T22:38:46.747Z,4.20
2019-03-06T22:43:42.767Z,4.20
2019-03-06T22:48:38.443Z,4.30
2019-03-06T22:53:34.404Z,4.00
2019-03-06T22:58:30.300Z,4.07
2019-03-06T23:03:26.957Z,4.17
2019-03-06T23:08:22.746Z,3.70
2019-03-06T23:13:19.002Z,4.53
2019-03-06T23:18:14.966Z,4.13
2019-03-06T23:23:10.945Z,4.13
2019-03-06T23:28:06.632Z,4.17
2019-03-06T23:33:03.025Z,4.10
2019-03-06T23:37:58.799Z,4.60
2019-03-06T23:42:54.827Z,4.77
2019-03-06T23:47:51.039Z,4.87
2019-03-06T23:52:54.415Z,5.23
2019-03-06T23:57:50.210Z,4.23
